Airfield :
LOGIN :

Register | Disclaimer

   EN    FR    IT 

 










Legend :    VFR   Marginal VFR   IFR   Intensive IFR   Very Intensive IFR
Visi :
Ceiling :
>= 8 km
>= 3000ft
5 to 8 km
1000 to 3000 ft
1500m to 5 km
500 to 1000 ft
800 to 1500m
200 to 500 ft
< 800m
< 200 ft
Symbols :   Thunderstorms  Fog  Heavy snow  Heavy precipitations  Wind > 20 kt
SIGMETs :     Misc.  Thunderstorms  Icing  Turbulence  Mountain Waves  Volcanic Ashes







- Airport Elevation : 416 ft
- IATA code : OVD


LEAS - Asturias

CURRENT METAR :
  • 200130Z AUTO 00000KT 9000 NCD 12/11 Q1023

EXPIRED METARs :
  • 200100Z AUTO 00000KT 9000 NCD 12/11 Q1023
  • 200030Z AUTO 00000KT 9000 NCD 14/12 Q1023
  • 200000Z 00000KT 9999 FEW030 13/12 Q1023 NOSIG
  • 192330Z 00000KT 9999 FEW030 13/11 Q1023 NOSIG
  • 192300Z 21002KT 9999 FEW030 12/11 Q1023 NOSIG

TAF TAF LEAS
Valid from the 19 at 21:00 until the 20 at 21:00 UTC


192000Z 1921/2021 08006KT 9999 FEW040 TX20/2014Z TN12/2007Z
No reported NOTAMs for that airfield.



MET'MAP, your aeronautical weather chart ! - Copyright ORBIFLY December 2007 - Disclaimer

ORBIFLY MET'MAP TEAM :

Programming & Development : Alexandra Zaïnal
Concept & Development : Baudouin d'Aumeries
Co-Development & Prog : Marc-Olivier Méhu
Technical & hardware support : Manuel Goepfert

Contact : metmap@orbifly.com




SOURCES & CREDITS :

   NOAA